Latest Weather Observations for Albany Airport

IDW60801

Issued at 7:02 pm WST Monday 25 May 2015 (issued every 30 minutes, with the page automatically refreshed every 10 minutes)

About weather observations | Map of weather stations | Latest weather observations for WA | Other Formats
Station Details ID: 009999 Name: ALBANY AIRPORT Lat: -34.94 Lon: 117.82 Height: 68.4 m
Data from the previous 72 hours. | See also: Recent months at Albany Airport
Date/Time
WST
Temp
°C
App
Temp
°C
Dew
Point
Rel
Hum
%
Delta-T
°C
Wind Press
QNH
hPa
Press
MSL
hPa
Rain
since 9 am
mm
Dir
 
Spd
km/h
Gust
km/h
Spd
kts
Gust
kts
25/07:00pm 12.1 10.4 11.3 95 0.4 WNW 11 13 6 7 1020.1 - 0.0
25/06:30pm 14.1 12.7 12.3 89 1.0 W 11 11 6 6 1020.0 - 0.0
25/06:00pm 15.3 14.4 12.6 84 1.5 WSW 9 13 5 7 1019.9 1020.0 0.0
25/05:30pm 15.5 14.2 12.4 82 1.7 WSW 11 15 6 8 1019.7 - 0.0
25/05:00pm 16.0 13.3 11.8 76 2.3 WSW 17 20 9 11 1019.5 - 0.0
25/04:30pm 16.8 14.6 12.1 74 2.6 W 15 19 8 10 1019.4 - 0.0
25/04:00pm 17.1 15.0 12.4 74 2.6 WSW 15 22 8 12 1019.3 - 0.0
25/03:30pm 17.4 14.6 12.7 74 2.6 WSW 19 22 10 12 1019.4 - 0.0
25/03:00pm 18.1 15.6 11.1 63 3.8 WSW 15 20 8 11 1019.3 1019.4 0.0
25/02:30pm 19.0 16.4 9.3 53 5.1 W 13 17 7 9 1019.1 - 0.0
25/02:00pm 19.5 16.5 9.3 51 5.4 W 15 19 8 10 1019.1 - 0.0
25/01:30pm 19.2 14.7 8.6 50 5.5 W 22 26 12 14 1019.3 - 0.0
25/01:00pm 19.0 14.8 8.4 50 5.5 NW 20 26 11 14 1019.3 - 0.0
25/12:30pm 19.1 15.0 8.7 51 5.4 WNW 20 28 11 15 1019.6 - 0.0
25/12:00pm 18.9 14.9 9.0 52 5.2 NNW 20 26 11 14 1020.0 1020.1 0.0
25/11:30am 18.7 14.6 8.7 52 5.2 NW 20 28 11 15 1020.5 - 0.0
25/11:00am 17.8 13.0 7.5 51 5.2 NW 22 30 12 16 1020.9 - 0.0
25/10:30am 17.4 13.8 8.2 54 4.7 NW 17 22 9 12 1021.3 - 0.0
25/10:00am 16.3 13.0 8.2 58 4.1 NNW 15 20 8 11 1021.4 - 0.0
25/09:30am 14.6 10.7 7.3 61 3.6 NNW 17 24 9 13 1021.6 - 0.0
25/09:00am 12.8 8.9 7.2 69 2.7 NNW 17 20 9 11 1021.7 1021.8 0.0
25/08:00am 11.6 8.4 7.0 73 2.2 N 13 17 7 9 1021.6 - 0.0
25/07:30am 9.6 7.6 7.3 85 1.1 NW 7 11 4 6 1021.5 - 0.0
25/07:00am 8.8 6.4 6.9 88 0.9 NW 9 11 5 6 1021.3 - 0.0
25/06:30am 9.0 6.9 6.6 85 1.1 NW 7 11 4 6 1021.1 - 0.0
25/05:30am 10.8 8.2 6.1 73 2.2 NNW 9 11 5 6 1020.8 - 0.0
25/05:00am 11.9 7.3 6.4 69 2.6 N 20 22 11 12 1020.8 - 0.0
25/04:30am 10.2 7.4 7.0 80 1.5 NW 11 13 6 7 1021.1 - 0.0
25/04:00am 9.4 7.0 7.1 85 1.1 NW 9 13 5 7 1021.2 - 0.0
25/03:30am 9.2 6.7 6.6 84 1.2 W 9 15 5 8 1021.5 - 0.0
25/03:00am 8.5 5.9 6.3 86 1.0 WNW 9 13 5 7 1021.4 1021.5 0.0
25/02:30am 9.3 5.5 6.0 80 1.5 W 15 19 8 10 1021.7 - 0.0
25/02:00am 7.5 5.2 5.7 88 0.8 N 7 9 4 5 1021.3 - 0.0
25/01:30am 7.5 4.4 5.7 88 0.8 N 11 13 6 7 1021.2 - 0.0
25/01:00am 9.4 7.3 6.8 84 1.2 NW 7 9 4 5 1021.4 - 0.0
25/12:30am 10.1 7.8 7.4 83 1.3 N 9 13 5 7 1021.7 - 0.0
25/12:00am 9.3 7.5 7.0 85 1.1 WNW 6 7 3 4 1021.7 1021.8 0.0
 
Date/Time
WST
Temp
°C
App
Temp
°C
Dew
Point
Rel
Hum
%
Delta-T
°C
Wind Press
QNH
hPa
Press
MSL
hPa
Rain
since 9 am
mm
Dir
 
Spd
km/h
Gust
km/h
Spd
kts
Gust
kts
24/11:30pm 9.9 8.1 7.2 83 1.3 N 6 7 3 4 1021.7 - 0.0
24/11:00pm 10.0 7.8 7.7 86 1.1 NW 9 11 5 6 1021.7 - 0.0
24/10:30pm 10.4 8.3 8.3 87 1.0 W 9 11 5 6 1021.9 - 0.0
24/10:00pm 9.1 7.5 7.8 92 0.6 NNE 6 9 3 5 1021.8 - 0.0
24/09:30pm 10.9 9.2 8.2 83 1.3 NW 7 11 4 6 1021.7 - 0.0
24/09:00pm 11.7 9.5 9.3 85 1.2 NNW 11 13 6 7 1021.7 1021.8 0.0
24/08:30pm 12.0 9.5 9.6 85 1.2 N 13 13 7 7 1021.6 - 0.0
24/08:00pm 12.0 10.2 9.6 85 1.2 N 9 9 5 5 1021.7 - 0.0
24/07:30pm 12.8 11.1 9.7 81 1.6 N 9 9 5 5 1021.8 - 0.0
24/07:00pm 12.8 11.5 9.9 82 1.5 N 7 9 4 5 1021.7 - 0.0
24/06:30pm 13.3 12.1 9.6 78 1.9 N 6 7 3 4 1021.5 - 0.0
24/06:00pm 13.6 12.6 10.3 80 1.7 N 6 7 3 4 1021.5 1021.6 0.0
24/05:30pm 13.8 12.5 10.1 78 1.9 NNW 7 7 4 4 1021.2 - 0.0
24/05:00pm 13.8 12.4 9.5 75 2.2 NW 7 9 4 5 1021.0 - 0.0
24/04:30pm 14.3 12.4 9.0 70 2.7 NNW 9 9 5 5 1020.9 - 0.0
24/04:00pm 17.5 15.2 7.3 51 5.1 N 9 11 5 6 1020.7 - 0.0
24/03:30pm 17.9 15.1 7.1 49 5.4 NNW 11 15 6 8 1020.6 - 0.0
24/03:00pm 18.2 15.4 6.8 47 5.7 NNW 11 15 6 8 1020.6 1020.7 0.0
24/02:30pm 18.6 15.6 7.6 48 5.6 WNW 13 19 7 10 1020.6 - 0.0
24/02:00pm 18.8 15.5 7.9 49 5.6 NW 15 22 8 12 1020.5 - 0.0
24/01:30pm 18.8 16.5 7.3 47 5.8 N 9 24 5 13 1020.7 - 0.0
24/01:00pm 18.3 16.4 7.7 50 5.4 N 7 11 4 6 1020.9 - 0.0
24/12:30pm 17.2 15.0 7.7 53 4.8 NNW 9 13 5 7 1021.2 - 0.0
24/12:00pm 16.6 14.8 9.5 63 3.7 NW 9 11 5 6 1021.6 1021.7 0.0
24/11:30am 16.1 13.6 9.8 66 3.3 W 13 15 7 8 1022.0 - 0.0
24/11:00am 16.9 14.5 9.9 63 3.7 NW 13 17 7 9 1022.3 - 0.0
24/10:30am 16.3 13.6 10.4 68 3.1 NW 15 20 8 11 1022.4 - 0.0
24/10:00am 14.5 12.3 10.9 79 1.9 NW 13 17 7 9 1022.4 - 0.0
24/09:30am 14.2 12.1 11.0 81 1.7 NW 13 17 7 9 1022.4 - 0.0
24/09:00am 13.6 11.7 10.5 81 1.6 NW 11 13 6 7 1022.2 1022.3 1.0
24/08:30am 13.4 11.1 10.3 81 1.6 NW 13 15 7 8 1022.1 - 1.0
24/08:00am 10.3 8.0 8.9 91 0.7 NW 11 13 6 7 1021.9 - 1.0
24/07:30am 10.5 8.3 9.5 93 0.5 NW 11 11 6 6 1021.6 - 1.0
24/07:00am 10.2 7.9 9.0 92 0.6 NW 11 13 6 7 1021.4 - 1.0
24/06:30am 9.9 7.6 8.9 93 0.5 NW 11 13 6 7 1021.3 - 1.0
24/06:00am 10.4 8.2 9.4 93 0.5 NW 11 11 6 6 1021.0 1021.1 1.0
24/05:30am 10.4 8.6 9.4 93 0.5 NNW 9 9 5 5 1020.9 - 1.0
24/05:00am 10.0 7.4 9.2 95 0.4 WNW 13 13 7 7 1020.8 - 1.0
24/04:30am 8.9 8.1 8.1 95 0.4 NW 2 11 1 6 1020.6 - 1.0
24/04:00am 8.5 5.5 7.9 96 0.3 NW 13 15 7 8 1020.4 - 1.0
24/03:30am 9.5 6.8 9.1 97 0.2 NW 13 17 7 9 1020.3 - 1.0
24/03:00am 8.6 7.8 8.2 97 0.2 NNW 2 9 1 5 1020.3 1020.4 1.0
24/02:30am 8.3 6.7 7.9 97 0.2 NNW 6 7 3 4 1020.3 - 1.0
24/02:00am 9.7 7.8 9.1 96 0.3 NW 9 11 5 6 1020.0 - 1.0
24/01:30am 8.8 6.3 8.4 97 0.2 WNW 11 13 6 7 1020.0 - 1.0
24/01:00am 8.9 6.9 8.5 97 0.2 WNW 9 11 5 6 1020.0 - 1.0
24/12:30am 9.1 6.8 8.9 99 0.1 WNW 11 13 6 7 1020.0 - 1.0
24/12:00am 9.3 7.0 9.1 99 0.1 WNW 11 11 6 6 1019.9 1020.0 1.0
 
Date/Time
WST
Temp
°C
App
Temp
°C
Dew
Point
Rel
Hum
%
Delta-T
°C
Wind Press
QNH
hPa
Press
MSL
hPa
Rain
since 9 am
mm
Dir
 
Spd
km/h
Gust
km/h
Spd
kts
Gust
kts
23/11:30pm 9.6 7.7 9.2 97 0.2 WNW 9 11 5 6 1019.9 - 1.0
23/11:00pm 9.5 7.2 9.1 97 0.2 WNW 11 13 6 7 1020.0 - 0.8
23/10:30pm 9.7 7.5 9.3 97 0.2 WNW 11 13 6 7 1020.0 - 0.8
23/10:00pm 10.8 9.2 10.2 96 0.3 W 9 11 5 6 1020.0 - 0.8
23/09:30pm 11.1 9.1 10.3 95 0.4 WNW 11 11 6 6 1020.0 - 0.8
23/09:00pm 12.1 9.9 10.9 92 0.6 WNW 13 19 7 10 1020.1 1020.2 0.8
23/08:30pm 11.7 9.9 10.9 95 0.4 WNW 11 15 6 8 1020.0 - 0.8
23/08:00pm 11.6 10.2 10.8 95 0.4 NW 9 13 5 7 1019.7 - 0.8
23/07:30pm 12.0 10.3 11.2 95 0.4 NW 11 13 6 7 1019.3 - 0.8
23/07:00pm 10.7 10.8 10.1 96 0.3 CALM 0 0 0 0 1019.0 - 0.8
23/06:30pm 11.1 9.6 10.5 96 0.3 WNW 9 11 5 6 1018.7 - 0.8
23/06:00pm 12.8 11.1 11.3 91 0.8 W 11 11 6 6 1018.4 1018.5 0.8
23/05:30pm 13.7 12.2 12.0 89 0.9 W 11 13 6 7 1018.0 - 0.8
23/05:00pm 15.1 13.8 12.4 84 1.5 W 11 15 6 8 1017.6 - 0.8
23/04:30pm 16.2 14.0 12.0 76 2.3 WSW 15 20 8 11 1017.4 - 0.8
23/04:00pm 16.7 15.0 12.5 76 2.3 W 13 19 7 10 1017.1 - 0.8
23/03:30pm 17.4 15.4 12.7 74 2.6 W 15 22 8 12 1016.8 - 0.8
23/03:00pm 16.2 14.3 13.0 81 1.8 W 15 19 8 10 1016.8 1016.9 0.8
23/02:30pm 16.3 14.3 14.0 86 1.3 W 17 26 9 14 1016.7 - 0.8
23/02:00pm 16.1 15.1 14.7 91 0.8 W 13 17 7 9 1016.5 - 0.8
23/01:30pm 15.8 13.2 14.8 94 0.6 WSW 22 32 12 17 1016.5 - 0.8
23/01:18pm 17.9 14.8 13.5 75 2.5 W 22 32 12 17 1016.3 - 0.0
23/01:00pm 17.4 12.9 12.5 73 2.7 W 28 39 15 21 1016.2 - 0.0
23/12:30pm 18.8 15.2 11.9 64 3.8 W 22 30 12 16 1015.9 - 0.0
23/12:00pm 20.3 15.5 11.7 57 4.8 WNW 28 37 15 20 1016.1 1016.2 0.0
23/11:30am 19.4 16.0 11.4 60 4.4 W 20 33 11 18 1016.4 - 0.0
23/11:00am 18.6 15.2 11.3 62 4.0 NW 20 28 11 15 1016.6 - 0.0
23/10:30am 17.7 14.2 11.0 65 3.6 NW 20 26 11 14 1016.7 - 0.0
23/10:00am 16.7 13.1 10.7 67 3.2 NW 20 28 11 15 1016.8 - 0.0
23/09:30am 15.3 12.1 10.1 71 2.7 NW 17 20 9 11 1017.0 - 0.0
23/09:00am 13.2 10.7 9.7 79 1.8 NW 13 15 7 8 1016.9 1017.0 0.0
23/08:30am 11.2 9.7 9.0 86 1.1 NNW 7 13 4 7 1016.9 - 0.0
23/08:00am 8.5 7.4 8.3 99 0.1 N 4 6 2 3 1016.9 - 0.0
23/07:30am 6.2 3.9 5.5 95 0.3 NNW 7 9 4 5 1016.8 - 0.0
23/07:00am 5.7 3.3 5.2 97 0.2 WNW 7 9 4 5 1016.8 - 0.0
23/06:30am 5.6 4.2 5.6 100 0.0 NW 2 7 1 4 1016.7 - 0.0
23/06:00am 6.0 3.9 5.8 99 0.1 N 6 7 3 4 1016.4 1016.5 0.0
23/05:30am 5.9 3.5 5.4 97 0.2 N 7 9 4 5 1016.1 - 0.0
23/05:00am 6.9 4.3 6.0 94 0.4 N 9 11 5 6 1016.1 - 0.0
23/04:30am 6.4 4.4 6.4 100 0.0 N 6 9 3 5 1016.2 - 0.0
23/04:00am 6.4 4.2 6.2 99 0.1 N 7 9 4 5 1016.1 - 0.0
23/03:30am 5.4 3.6 5.4 100 0.0 N 4 6 2 3 1016.2 - 0.0
23/03:27am 5.6 3.4 5.4 99 0.1 N 6 6 3 3 1016.2 - 0.0
23/03:00am 5.3 2.9 5.3 100 0.0 N 7 7 4 4 1016.5 1016.6 0.0
23/02:38am 6.0 3.9 6.0 100 0.0 N 6 7 3 4 1016.6 - 0.0
23/02:30am 6.3 4.3 6.1 99 0.1 N 6 7 3 4 1016.6 - 0.0
23/02:00am 6.1 4.1 6.1 100 0.0 WNW 6 7 3 4 1016.8 - 0.0
23/01:30am 6.6 5.4 6.4 99 0.1 WNW 2 6 1 3 1017.0 - 0.0
23/01:00am 7.5 6.5 7.3 99 0.1 NNW 2 6 1 3 1017.2 - 0.0
23/12:30am 6.9 4.8 6.5 97 0.2 N 7 9 4 5 1017.5 - 0.0
23/12:00am 7.1 5.0 6.7 97 0.2 N 7 9 4 5 1017.7 1017.8 0.0
 
Date/Time
WST
Temp
°C
App
Temp
°C
Dew
Point
Rel
Hum
%
Delta-T
°C
Wind Press
QNH
hPa
Press
MSL
hPa
Rain
since 9 am
mm
Dir
 
Spd
km/h
Gust
km/h
Spd
kts
Gust
kts
22/11:30pm 7.8 5.5 7.4 97 0.2 N 9 9 5 5 1018.1 - 0.0
22/11:00pm 7.5 5.5 7.1 97 0.2 NNE 7 7 4 4 1018.5 - 0.0
22/10:30pm 7.1 4.6 6.4 95 0.3 NNE 9 11 5 6 1018.6 - 0.0
22/10:00pm 7.8 5.4 6.9 94 0.4 NNE 9 9 5 5 1018.9 - 0.0
22/09:30pm 8.0 6.0 7.1 94 0.4 N 7 7 4 4 1019.2 - 0.0
22/09:00pm 7.8 4.9 6.7 93 0.5 NNE 11 11 6 6 1019.1 1019.2 0.0
22/08:30pm 8.6 5.9 7.3 91 0.6 NNE 11 11 6 6 1018.9 - 0.0
22/08:00pm 10.1 8.3 7.8 86 1.1 NE 7 9 4 5 1019.0 - 0.0
22/07:30pm 10.2 7.9 7.5 83 1.3 NE 9 11 5 6 1019.0 - 0.0

Other Formats:

Comma delimited format used in spreadsheet applications
http://www.bom.gov.au/fwo/IDW60801/IDW60801.94802.axf

JavaScript Object Notation format (JSON) in row-major order
http://www.bom.gov.au/fwo/IDW60801/IDW60801.94802.json